Time;durP1;ratioP1;P1;durP2;ratioP2;P2;SDS_P1;SDS_P2;PMS_P1;PMS_P2;Temp;Humidity;BMP_temperature;BMP_pressure;BME280_temperature;BME280_humidity;BME280_pressure;Samples;Min_cycle;Max_cycle;Signal;HPM_P1;HPM_P2
2021/10/19 15:23:49;;;;;;;;;;;7.30;67.00;;;;;;5110330;27;20300;-91
2021/10/19 15:26:14;;;;;;;;;;;7.00;68.90;;;;;;5103058;28;19913;-88
2021/10/19 15:28:40;;;;;;;;;;;6.90;70.50;;;;;;5091749;28;19915;-87
2021/10/19 15:31:07;;;;;;;;;;;6.90;71.70;;;;;;5106266;28;19908;-87
2021/10/19 15:33:34;;;;;;;;;;;6.80;72.50;;;;;;5109058;28;20348;-88
2021/10/19 15:35:59;;;;;;;;;;;6.80;73.10;;;;;;5098286;28;19919;-92
2021/10/19 15:38:25;;;;;;;;;;;6.80;73.80;;;;;;5092647;28;19908;-91
2021/10/19 15:40:51;;;;;;;;;;;6.70;74.20;;;;;;5109391;28;19908;-91
2021/10/19 15:43:17;;;;;;;;;;;6.70;74.60;;;;;;5109771;28;19916;-89
2021/10/19 15:45:43;;;;;;;;;;;6.70;75.00;;;;;;5110068;28;20381;-92
2021/10/19 15:48:09;;;;;;;;;;;6.70;75.20;;;;;;5108368;28;19970;-92
2021/10/19 15:50:35;;;;;;;;;;;6.60;75.50;;;;;;5112034;28;20376;-92
2021/10/19 15:53:00;;;;;;;;;;;6.50;75.60;;;;;;5110806;28;19996;-89
2021/10/19 15:55:26;;;;;;;;;;;6.50;75.90;;;;;;5110810;28;20292;-94
2021/10/19 15:57:51;;;;;;;;;;;6.50;76.10;;;;;;5109918;28;19908;-92
2021/10/19 16:00:17;;;;;;;;;;;6.40;76.30;;;;;;5110241;28;19912;-92
2021/10/19 16:02:47;;;;;;;;;;;6.30;76.60;;;;;;5111094;28;19978;-91
2021/10/19 16:05:13;;;;;;;;;;;6.30;76.80;;;;;;5108787;28;20352;-92
2021/10/19 16:07:38;;;;;;;;;;;6.20;77.00;;;;;;5109700;28;19965;-91
2021/10/19 16:10:04;;;;;;;;;;;6.10;77.20;;;;;;5110030;28;20364;-93
2021/10/19 16:12:30;;;;;;;;;;;6.10;77.50;;;;;;5110014;28;19908;-93
2021/10/19 16:14:55;;;;;;;;;;;6.00;77.70;;;;;;5111475;28;19922;-92
2021/10/19 16:17:21;;;;;;;;;;;5.90;77.80;;;;;;5110653;28;20322;-92
2021/10/19 16:19:47;;;;;;;;;;;5.90;77.90;;;;;;5109674;28;20345;-91
2021/10/19 16:22:12;;;;;;;;;;;5.80;78.00;;;;;;5118339;28;19924;-95
2021/10/19 16:24:38;;;;;;;;;;;5.70;78.20;;;;;;5130894;28;20387;-93
2021/10/19 16:27:04;;;;;;;;;;;5.70;78.90;;;;;;5130447;28;20283;-92
2021/10/19 16:29:30;;;;;;;;;;;5.60;78.40;;;;;;5131004;28;19911;-92
2021/10/19 16:31:56;;;;;;;;;;;5.50;78.60;;;;;;5125396;28;19912;-92
2021/10/19 16:34:22;;;;;;;;;;;5.50;78.70;;;;;;5094849;28;19915;-92
2021/10/19 16:36:47;;;;;;;;;;;5.40;78.80;;;;;;5114118;28;19968;-92
2021/10/19 16:39:13;;;;;;;;;;;5.40;78.80;;;;;;5098563;28;19918;-96
2021/10/19 16:41:39;;;;;;;;;;;5.30;79.00;;;;;;5099183;28;19911;-92
2021/10/19 16:44:05;;;;;;;;;;;5.20;79.20;;;;;;5117454;28;19908;-88
2021/10/19 16:46:31;;;;;;;;;;;5.20;79.40;;;;;;5098640;28;19912;-89
2021/10/19 16:48:57;;;;;;;;;;;5.10;79.60;;;;;;5098915;28;20315;-89
2021/10/19 16:51:23;;;;;;;;;;;5.10;79.80;;;;;;5114305;28;19911;-90
2021/10/19 16:53:49;;;;;;;;;;;5.00;80.00;;;;;;5092811;28;20386;-89
2021/10/19 16:56:15;;;;;;;;;;;4.90;80.00;;;;;;5098393;28;19912;-89
2021/10/19 16:58:40;;;;;;;;;;;4.90;80.10;;;;;;5096929;28;20361;-90
2021/10/19 17:01:06;;;;;;;;;;;4.80;80.20;;;;;;5102536;28;20261;-95
2021/10/19 17:03:32;;;;;;;;;;;4.70;80.30;;;;;;5099208;28;19911;-95
2021/10/19 17:05:58;;;;;;;;;;;4.70;80.50;;;;;;5099895;28;20027;-95
2021/10/19 17:08:27;;;;;;;;;;;4.60;80.60;;;;;;5099270;28;20367;-95
2021/10/19 17:10:52;;;;;;;;;;;4.50;80.70;;;;;;5099362;28;19994;-95
2021/10/19 17:13:19;;;;;;;;;;;4.50;80.90;;;;;;5090670;28;20368;-95
2021/10/19 17:15:48;;;;;;;;;;;4.40;81.00;;;;;;5098934;28;19908;-95
2021/10/19 17:18:14;;;;;;;;;;;4.40;81.20;;;;;;5088428;28;19908;-90
2021/10/19 17:20:40;;;;;;;;;;;4.30;81.40;;;;;;5105524;28;19919;-89
2021/10/19 17:23:06;;;;;;;;;;;4.30;81.50;;;;;;5091531;28;19980;-91
2021/10/19 17:25:31;;;;;;;;;;;4.30;81.70;;;;;;5094899;28;19912;-90
2021/10/19 17:27:57;;;;;;;;;;;4.20;81.80;;;;;;5091808;28;19976;-90
2021/10/19 17:30:23;;;;;;;;;;;4.20;82.60;;;;;;5087624;28;19908;-89
2021/10/19 17:32:48;;;;;;;;;;;4.10;82.20;;;;;;5106426;28;19912;-90
2021/10/19 17:35:14;;;;;;;;;;;4.10;82.30;;;;;;5090159;28;20414;-89
2021/10/19 17:37:41;;;;;;;;;;;4.10;83.00;;;;;;5107542;28;19959;-90
2021/10/19 17:40:07;;;;;;;;;;;4.00;82.50;;;;;;5096394;28;19909;-95
2021/10/19 17:42:33;;;;;;;;;;;4.00;82.80;;;;;;5078095;28;19919;-94
2021/10/19 17:44:59;;;;;;;;;;;4.00;82.90;;;;;;5095172;28;19918;-95
2021/10/19 17:47:24;;;;;;;;;;;3.90;83.10;;;;;;5098645;28;19908;-95
2021/10/19 17:49:50;;;;;;;;;;;3.80;83.20;;;;;;5096612;28;19914;-91
2021/10/19 17:52:15;;;;;;;;;;;3.80;83.30;;;;;;5091515;28;20271;-91
2021/10/19 17:54:41;;;;;;;;;;;3.80;83.40;;;;;;5116577;28;19958;-92
2021/10/19 17:57:06;;;;;;;;;;;3.80;83.50;;;;;;5087979;28;19911;-92
2021/10/19 17:59:32;;;;;;;;;;;3.70;83.70;;;;;;5107141;28;19912;-90
2021/10/19 18:01:58;;;;;;;;;;;3.70;83.50;;;;;;5089504;28;19924;-91
2021/10/19 18:04:23;;;;;;;;;;;3.70;83.90;;;;;;5106649;28;19957;-91
2021/10/19 18:06:49;;;;;;;;;;;3.70;83.90;;;;;;5096058;28;19912;-92
2021/10/19 18:09:16;;;;;;;;;;;3.60;83.90;;;;;;5107198;28;19908;-92
2021/10/19 18:11:42;;;;;;;;;;;3.60;84.10;;;;;;5091433;28;19911;-95
2021/10/19 18:14:11;;;;;;;;;;;3.60;84.10;;;;;;5093099;28;19908;-96
2021/10/19 18:16:38;;;;;;;;;;;3.60;84.10;;;;;;5110645;28;19935;-92
2021/10/19 18:19:04;;;;;;;;;;;3.60;84.40;;;;;;5094440;28;19912;-93
2021/10/19 18:21:29;;;;;;;;;;;3.50;84.50;;;;;;5111727;28;19918;-91
2021/10/19 18:23:55;;;;;;;;;;;3.50;84.70;;;;;;5108185;28;19919;-88
2021/10/19 18:26:21;;;;;;;;;;;3.50;84.80;;;;;;5103876;28;20295;-87
2021/10/19 18:28:47;;;;;;;;;;;3.50;84.80;;;;;;5110326;28;19912;-87
2021/10/19 18:31:13;;;;;;;;;;;3.50;84.90;;;;;;5087879;28;20364;-93
2021/10/19 18:33:38;;;;;;;;;;;3.50;84.90;;;;;;5096929;28;19911;-95
2021/10/19 18:36:04;;;;;;;;;;;3.40;85.00;;;;;;5093862;28;19908;-94
2021/10/19 18:38:30;;;;;;;;;;;3.40;85.30;;;;;;5094747;28;20482;-87
2021/10/19 18:40:55;;;;;;;;;;;3.30;85.90;;;;;;5108764;28;20367;-87
2021/10/19 18:43:21;;;;;;;;;;;3.30;85.50;;;;;;5105103;28;19915;-87
2021/10/19 18:45:47;;;;;;;;;;;3.20;85.80;;;;;;5091410;28;20403;-87
2021/10/19 18:48:12;;;;;;;;;;;3.20;85.90;;;;;;5094359;28;19961;-88
2021/10/19 18:50:38;;;;;;;;;;;3.20;86.20;;;;;;5109095;28;19915;-86
2021/10/19 18:53:08;;;;;;;;;;;3.10;86.20;;;;;;5094410;28;19918;-88
2021/10/19 18:55:38;;;;;;;;;;;3.10;86.30;;;;;;5090416;28;19912;-89
2021/10/19 18:58:04;;;;;;;;;;;3.00;86.40;;;;;;5091135;28;19919;-89
2021/10/19 19:00:30;;;;;;;;;;;3.00;86.50;;;;;;5088948;28;20335;-90
2021/10/19 19:02:55;;;;;;;;;;;2.90;86.60;;;;;;5085530;28;20002;-90
2021/10/19 19:05:22;;;;;;;;;;;2.90;86.80;;;;;;5093526;28;20270;-90
2021/10/19 19:07:48;;;;;;;;;;;2.90;86.90;;;;;;5081676;28;19919;-90
2021/10/19 21:54:59;;;;;;;;;;;-0.50;84.40;;;;;;5097258;27;19922;-89
2021/10/19 21:57:25;;;;;;;;;;;-0.60;86.00;;;;;;5123958;28;19913;-89
2021/10/19 21:59:52;;;;;;;;;;;-0.60;88.10;;;;;;5090084;28;19913;-88
2021/10/19 22:02:19;;;;;;;;;;;-0.60;90.00;;;;;;5102328;28;19948;-88
2021/10/19 22:04:44;;;;;;;;;;;-0.50;90.80;;;;;;5091262;28;20364;-92
